sensor_id;sensor_type;location;lat;lon;timestamp;pressure;altitude;pressure_sealevel;temperature;humidity
53900;BME280;40509;32.858;-116.858;2023-05-02T00:02:13;97571.44;;;21.38;49.35
53900;BME280;40509;32.858;-116.858;2023-05-02T00:04:41;97569.63;;;21.38;49.29
53900;BME280;40509;32.858;-116.858;2023-05-02T00:07:08;97573.88;;;21.31;49.46
53900;BME280;40509;32.858;-116.858;2023-05-02T00:09:35;97576.50;;;21.31;49.18
53900;BME280;40509;32.858;-116.858;2023-05-02T00:12:02;97574.88;;;21.38;49.41
53900;BME280;40509;32.858;-116.858;2023-05-02T00:14:30;97565.53;;;21.36;49.55
53900;BME280;40509;32.858;-116.858;2023-05-02T00:16:57;97574.22;;;21.36;49.12
53900;BME280;40509;32.858;-116.858;2023-05-02T00:19:25;97572.09;;;21.40;49.22
53900;BME280;40509;32.858;-116.858;2023-05-02T00:21:52;97572.09;;;21.40;49.30
53900;BME280;40509;32.858;-116.858;2023-05-02T00:24:19;97579.16;;;21.39;49.18
53900;BME280;40509;32.858;-116.858;2023-05-02T00:26:47;97577.34;;;21.40;49.34
53900;BME280;40509;32.858;-116.858;2023-05-02T00:29:14;97574.38;;;21.35;49.31
53900;BME280;40509;32.858;-116.858;2023-05-02T00:31:41;97574.56;;;21.42;49.51
53900;BME280;40509;32.858;-116.858;2023-05-02T00:34:09;97570.78;;;21.36;49.38
53900;BME280;40509;32.858;-116.858;2023-05-02T00:36:36;97577.34;;;21.40;49.50
53900;BME280;40509;32.858;-116.858;2023-05-02T00:39:03;97571.28;;;21.39;49.36
53900;BME280;40509;32.858;-116.858;2023-05-02T00:41:30;97584.72;;;21.36;49.25
53900;BME280;40509;32.858;-116.858;2023-05-02T00:43:58;97582.25;;;21.35;48.76
53900;BME280;40509;32.858;-116.858;2023-05-02T00:46:25;97579.31;;;21.30;49.43
53900;BME280;40509;32.858;-116.858;2023-05-02T00:48:52;97573.06;;;21.39;49.03
53900;BME280;40509;32.858;-116.858;2023-05-02T00:51:20;97581.28;;;21.36;49.05
53900;BME280;40509;32.858;-116.858;2023-05-02T00:53:49;97578.00;;;21.34;48.87
53900;BME280;40509;32.858;-116.858;2023-05-02T00:56:17;97572.44;;;21.37;48.78
53900;BME280;40509;32.858;-116.858;2023-05-02T00:58:45;97583.91;;;21.36;48.85
53900;BME280;40509;32.858;-116.858;2023-05-02T01:04:22;97585.72;;;21.35;48.57
53900;BME280;40509;32.858;-116.858;2023-05-02T01:14:56;97582.56;;;21.32;49.16
53900;BME280;40509;32.858;-116.858;2023-05-02T01:17:26;97585.38;;;21.30;48.91
53900;BME280;40509;32.858;-116.858;2023-05-02T01:20:01;97580.75;;;21.32;48.86
53900;BME280;40509;32.858;-116.858;2023-05-02T01:22:30;97589.63;;;21.31;48.78
53900;BME280;40509;32.858;-116.858;2023-05-02T01:27:46;97593.44;;;21.37;48.55
53900;BME280;40509;32.858;-116.858;2023-05-02T01:30:18;97598.00;;;21.35;48.57
53900;BME280;40509;32.858;-116.858;2023-05-02T01:32:49;97601.47;;;21.35;48.50
53900;BME280;40509;32.858;-116.858;2023-05-02T01:35:19;97603.75;;;21.30;48.54
53900;BME280;40509;32.858;-116.858;2023-05-02T01:37:47;97611.44;;;21.32;48.70
53900;BME280;40509;32.858;-116.858;2023-05-02T01:40:19;97611.44;;;21.32;48.56
53900;BME280;40509;32.858;-116.858;2023-05-02T01:42:51;97612.25;;;21.32;48.51
53900;BME280;40509;32.858;-116.858;2023-05-02T01:45:19;97621.16;;;21.31;48.36
53900;BME280;40509;32.858;-116.858;2023-05-02T01:47:48;97624.06;;;21.28;48.23
53900;BME280;40509;32.858;-116.858;2023-05-02T01:50:19;97623.94;;;21.30;48.67
53900;BME280;40509;32.858;-116.858;2023-05-02T01:52:48;97627.22;;;21.32;48.24
53900;BME280;40509;32.858;-116.858;2023-05-02T01:55:17;97623.94;;;21.30;48.59
53900;BME280;40509;32.858;-116.858;2023-05-02T01:57:47;97629.19;;;21.30;48.55
53900;BME280;40509;32.858;-116.858;2023-05-02T02:00:17;97630.16;;;21.29;48.88
53900;BME280;40509;32.858;-116.858;2023-05-02T02:02:46;97625.06;;;21.27;48.90
53900;BME280;40509;32.858;-116.858;2023-05-02T02:05:15;97626.56;;;21.30;48.74
53900;BME280;40509;32.858;-116.858;2023-05-02T02:07:45;97619.13;;;21.25;48.83
53900;BME280;40509;32.858;-116.858;2023-05-02T02:10:12;97629.47;;;21.27;48.75
53900;BME280;40509;32.858;-116.858;2023-05-02T02:13:29;97634.38;;;21.21;49.02
53900;BME280;40509;32.858;-116.858;2023-05-02T02:15:50;97637.50;;;21.25;48.69
53900;BME280;40509;32.858;-116.858;2023-05-02T02:18:21;97640.28;;;21.23;49.00
53900;BME280;40509;32.858;-116.858;2023-05-02T02:20:52;97644.72;;;21.23;48.72
53900;BME280;40509;32.858;-116.858;2023-05-02T02:23:22;97639.63;;;21.21;48.37
53900;BME280;40509;32.858;-116.858;2023-05-02T02:25:54;97644.22;;;21.19;48.85
53900;BME280;40509;32.858;-116.858;2023-05-02T02:28:23;97637.31;;;21.18;49.04
53900;BME280;40509;32.858;-116.858;2023-05-02T02:30:50;97645.19;;;21.18;48.48
53900;BME280;40509;32.858;-116.858;2023-05-02T02:33:19;97645.88;;;21.20;48.64
53900;BME280;40509;32.858;-116.858;2023-05-02T02:35:51;97643.88;;;21.22;48.84
53900;BME280;40509;32.858;-116.858;2023-05-02T02:38:25;97645.69;;;21.22;48.66
53900;BME280;40509;32.858;-116.858;2023-05-02T02:41:15;97650.44;;;21.18;48.76
53900;BME280;40509;32.858;-116.858;2023-05-02T02:44:20;97648.13;;;21.15;49.08
53900;BME280;40509;32.858;-116.858;2023-05-02T02:47:10;97651.56;;;21.16;48.38
53900;BME280;40509;32.858;-116.858;2023-05-02T02:50:15;97651.13;;;21.20;48.77
53900;BME280;40509;32.858;-116.858;2023-05-02T02:53:32;97658.63;;;21.15;49.12
53900;BME280;40509;32.858;-116.858;2023-05-02T02:56:04;97656.59;;;21.09;48.88
53900;BME280;40509;32.858;-116.858;2023-05-02T02:59:00;97662.91;;;21.16;48.53
53900;BME280;40509;32.858;-116.858;2023-05-02T03:01:31;97660.78;;;21.20;48.60
53900;BME280;40509;32.858;-116.858;2023-05-02T03:04:01;97674.38;;;21.15;48.28
53900;BME280;40509;32.858;-116.858;2023-05-02T03:06:31;97668.31;;;21.15;47.90
53900;BME280;40509;32.858;-116.858;2023-05-02T03:09:00;97678.13;;;21.13;48.45
53900;BME280;40509;32.858;-116.858;2023-05-02T03:11:29;97686.31;;;21.10;48.58
53900;BME280;40509;32.858;-116.858;2023-05-02T03:13:58;97679.94;;;21.12;48.22
53900;BME280;40509;32.858;-116.858;2023-05-02T03:16:39;97685.84;;;21.14;48.07
53900;BME280;40509;32.858;-116.858;2023-05-02T03:19:11;97680.75;;;21.13;48.23
53900;BME280;40509;32.858;-116.858;2023-05-02T03:21:38;97693.88;;;21.13;47.74
53900;BME280;40509;32.858;-116.858;2023-05-02T03:24:14;97697.47;;;21.12;48.09
53900;BME280;40509;32.858;-116.858;2023-05-02T03:26:42;97690.13;;;21.15;48.20
53900;BME280;40509;32.858;-116.858;2023-05-02T03:29:12;97698.00;;;21.15;47.92
53900;BME280;40509;32.858;-116.858;2023-05-02T03:31:41;97692.91;;;21.14;47.94
53900;BME280;40509;32.858;-116.858;2023-05-02T03:34:09;97691.25;;;21.13;48.34
53900;BME280;40509;32.858;-116.858;2023-05-02T03:36:37;97694.03;;;21.11;48.49
53900;BME280;40509;32.858;-116.858;2023-05-02T03:39:04;97694.84;;;21.12;49.08
53900;BME280;40509;32.858;-116.858;2023-05-02T03:41:32;97697.63;;;21.10;48.94
53900;BME280;40509;32.858;-116.858;2023-05-02T03:44:05;97695.00;;;21.10;48.96
53900;BME280;40509;32.858;-116.858;2023-05-02T03:46:33;97702.34;;;21.06;49.07
53900;BME280;40509;32.858;-116.858;2023-05-02T03:49:02;97698.75;;;21.08;49.00
53900;BME280;40509;32.858;-116.858;2023-05-02T03:51:29;97703.03;;;21.09;48.85
53900;BME280;40509;32.858;-116.858;2023-05-02T03:53:57;97700.56;;;21.07;49.07
53900;BME280;40509;32.858;-116.858;2023-05-02T03:56:25;97703.34;;;21.05;49.11
53900;BME280;40509;32.858;-116.858;2023-05-02T03:59:11;97705.13;;;21.05;49.27
53900;BME280;40509;32.858;-116.858;2023-05-02T04:01:39;97710.69;;;21.02;48.99
53900;BME280;40509;32.858;-116.858;2023-05-02T04:04:08;97709.03;;;21.01;49.08
53900;BME280;40509;32.858;-116.858;2023-05-02T04:06:44;97714.28;;;21.01;49.01
53900;BME280;40509;32.858;-116.858;2023-05-02T04:09:11;97714.00;;;21.04;48.89
53900;BME280;40509;32.858;-116.858;2023-05-02T04:12:01;97707.91;;;21.03;48.91
53900;BME280;40509;32.858;-116.858;2023-05-02T04:14:29;97716.91;;;21.01;48.88
53900;BME280;40509;32.858;-116.858;2023-05-02T04:16:57;97723.81;;;21.02;48.78
53900;BME280;40509;32.858;-116.858;2023-05-02T04:19:34;97716.63;;;21.04;48.76
53900;BME280;40509;32.858;-116.858;2023-05-02T04:22:02;97712.66;;;21.00;48.64
53900;BME280;40509;32.858;-116.858;2023-05-02T04:24:33;97708.06;;;21.02;48.57
53900;BME280;40509;32.858;-116.858;2023-05-02T04:27:01;97716.91;;;21.01;48.91
53900;BME280;40509;32.858;-116.858;2023-05-02T04:29:29;97719.69;;;20.99;48.61
53900;BME280;40509;32.858;-116.858;2023-05-02T04:31:57;97721.34;;;21.00;48.54
53900;BME280;40509;32.858;-116.858;2023-05-02T04:34:27;97725.78;;;21.00;48.74
53900;BME280;40509;32.858;-116.858;2023-05-02T04:36:54;97723.44;;;20.97;48.93
53900;BME280;40509;32.858;-116.858;2023-05-02T04:39:23;97731.03;;;21.00;48.31
53900;BME280;40509;32.858;-116.858;2023-05-02T04:42:03;97729.38;;;20.99;48.57
53900;BME280;40509;32.858;-116.858;2023-05-02T04:44:35;97732.00;;;20.99;48.35
53900;BME280;40509;32.858;-116.858;2023-05-02T04:47:02;97733.13;;;20.96;48.74
53900;BME280;40509;32.858;-116.858;2023-05-02T04:49:30;97738.53;;;20.95;48.89
53900;BME280;40509;32.858;-116.858;2023-05-02T04:51:58;97738.53;;;20.95;48.89
53900;BME280;40509;32.858;-116.858;2023-05-02T04:54:25;97748.03;;;20.96;48.80
53900;BME280;40509;32.858;-116.858;2023-05-02T04:56:53;97737.53;;;20.96;48.69
53900;BME280;40509;32.858;-116.858;2023-05-02T04:59:30;97743.09;;;20.93;48.93
53900;BME280;40509;32.858;-116.858;2023-05-02T05:02:00;97740.47;;;20.93;48.49
53900;BME280;40509;32.858;-116.858;2023-05-02T05:04:28;97737.84;;;20.93;48.54
53900;BME280;40509;32.858;-116.858;2023-05-02T05:06:55;97745.72;;;20.93;48.48
53900;BME280;40509;32.858;-116.858;2023-05-02T05:09:24;97737.34;;;20.89;48.60
53900;BME280;40509;32.858;-116.858;2023-05-02T05:11:51;97735.38;;;20.91;48.51
53900;BME280;40509;32.858;-116.858;2023-05-02T05:14:19;97736.88;;;20.94;48.62
53900;BME280;40509;32.858;-116.858;2023-05-02T05:16:50;97744.53;;;20.87;48.50
53900;BME280;40509;32.858;-116.858;2023-05-02T05:19:18;97734.84;;;20.87;48.60
53900;BME280;40509;32.858;-116.858;2023-05-02T05:21:45;97743.88;;;20.85;48.60
53900;BME280;40509;32.858;-116.858;2023-05-02T05:24:16;97748.97;;;20.86;48.55
53900;BME280;40509;32.858;-116.858;2023-05-02T05:26:44;97748.28;;;20.84;48.75
53900;BME280;40509;32.858;-116.858;2023-05-02T05:29:12;97746.34;;;20.86;48.78
53900;BME280;40509;32.858;-116.858;2023-05-02T05:31:41;97746.63;;;20.83;48.36
53900;BME280;40509;32.858;-116.858;2023-05-02T05:34:10;97747.63;;;20.82;48.39
53900;BME280;40509;32.858;-116.858;2023-05-02T05:36:40;97743.88;;;20.85;48.62
53900;BME280;40509;32.858;-116.858;2023-05-02T05:39:07;97737.94;;;20.83;48.43
53900;BME280;40509;32.858;-116.858;2023-05-02T05:41:37;97740.41;;;20.84;48.38
53900;BME280;40509;32.858;-116.858;2023-05-02T05:44:08;97745.81;;;20.83;48.62
53900;BME280;40509;32.858;-116.858;2023-05-02T05:46:35;97741.69;;;20.80;48.49
53900;BME280;40509;32.858;-116.858;2023-05-02T05:49:04;97742.00;;;20.77;48.78
53900;BME280;40509;32.858;-116.858;2023-05-02T05:51:34;97736.59;;;20.79;48.58
53900;BME280;40509;32.858;-116.858;2023-05-02T05:54:01;97735.63;;;20.80;48.38
53900;BME280;40509;32.858;-116.858;2023-05-02T05:56:29;97745.44;;;20.78;48.70
53900;BME280;40509;32.858;-116.858;2023-05-02T05:59:08;97746.41;;;20.77;48.46
53900;BME280;40509;32.858;-116.858;2023-05-02T06:01:36;97746.41;;;20.77;48.53
53900;BME280;40509;32.858;-116.858;2023-05-02T06:04:05;97744.63;;;20.77;48.56
53900;BME280;40509;32.858;-116.858;2023-05-02T06:06:35;97742.31;;;20.74;48.41
53900;BME280;40509;32.858;-116.858;2023-05-02T06:09:03;97742.56;;;20.71;48.76
53900;BME280;40509;32.858;-116.858;2023-05-02T06:11:32;97745.19;;;20.71;48.75
53900;BME280;40509;32.858;-116.858;2023-05-02T06:13:59;97748.50;;;20.73;48.66
53900;BME280;40509;32.858;-116.858;2023-05-02T06:16:26;97751.69;;;20.67;48.45
53900;BME280;40509;32.858;-116.858;2023-05-02T06:18:54;97751.56;;;20.68;48.27
53900;BME280;40509;32.858;-116.858;2023-05-02T06:21:21;97754.03;;;20.70;48.20
53900;BME280;40509;32.858;-116.858;2023-05-02T06:23:48;97753.34;;;20.68;48.49
53900;BME280;40509;32.858;-116.858;2023-05-02T06:26:15;97755.97;;;20.68;48.20
53900;BME280;40509;32.858;-116.858;2023-05-02T06:28:43;97761.22;;;20.68;48.30
53900;BME280;40509;32.858;-116.858;2023-05-02T06:31:10;97762.91;;;20.69;48.03
53900;BME280;40509;32.858;-116.858;2023-05-02T06:33:38;97765.94;;;20.64;48.23
53900;BME280;40509;32.858;-116.858;2023-05-02T06:36:05;97767.88;;;20.62;48.19
53900;BME280;40509;32.858;-116.858;2023-05-02T06:38:32;97759.19;;;20.62;48.11
53900;BME280;40509;32.858;-116.858;2023-05-02T06:40:59;97763.47;;;20.63;48.13
53900;BME280;40509;32.858;-116.858;2023-05-02T06:43:26;97764.41;;;20.62;48.52
53900;BME280;40509;32.858;-116.858;2023-05-02T06:45:54;97769.66;;;20.62;48.27
53900;BME280;40509;32.858;-116.858;2023-05-02T06:48:22;97765.56;;;20.59;48.13
53900;BME280;40509;32.858;-116.858;2023-05-02T06:50:51;97769.00;;;20.60;48.21
53900;BME280;40509;32.858;-116.858;2023-05-02T06:53:19;97769.16;;;20.58;48.09
53900;BME280;40509;32.858;-116.858;2023-05-02T06:55:47;97773.72;;;20.56;48.21
53900;BME280;40509;32.858;-116.858;2023-05-02T06:58:15;97777.84;;;20.59;48.02
53900;BME280;40509;32.858;-116.858;2023-05-02T07:00:43;97777.03;;;20.58;48.02
53900;BME280;40509;32.858;-116.858;2023-05-02T07:03:10;97782.28;;;20.58;48.04
53900;BME280;40509;32.858;-116.858;2023-05-02T07:05:37;97775.38;;;20.57;48.28
53900;BME280;40509;32.858;-116.858;2023-05-02T07:08:04;97772.91;;;20.55;48.30
53900;BME280;40509;32.858;-116.858;2023-05-02T07:10:32;97776.50;;;20.54;48.39
53900;BME280;40509;32.858;-116.858;2023-05-02T07:12:59;97774.84;;;20.53;48.35
53900;BME280;40509;32.858;-116.858;2023-05-02T07:15:26;97775.13;;;20.50;48.29
53900;BME280;40509;32.858;-116.858;2023-05-02T07:17:54;97767.56;;;20.47;48.15
53900;BME280;40509;32.858;-116.858;2023-05-02T07:20:21;97771.00;;;20.48;48.44
53900;BME280;40509;32.858;-116.858;2023-05-02T07:22:49;97775.84;;;20.52;48.36
53900;BME280;40509;32.858;-116.858;2023-05-02T07:25:16;97773.47;;;20.49;48.29
53900;BME280;40509;32.858;-116.858;2023-05-02T07:27:43;97775.13;;;20.50;48.26
53900;BME280;40509;32.858;-116.858;2023-05-02T07:30:11;97774.75;;;20.45;48.21
53900;BME280;40509;32.858;-116.858;2023-05-02T07:32:38;97779.34;;;20.43;48.30
53900;BME280;40509;32.858;-116.858;2023-05-02T07:35:06;97777.53;;;20.44;48.37
53900;BME280;40509;32.858;-116.858;2023-05-02T07:37:33;97767.72;;;20.46;48.33
53900;BME280;40509;32.858;-116.858;2023-05-02T07:40:02;97770.63;;;20.43;48.44
53900;BME280;40509;32.858;-116.858;2023-05-02T07:42:30;97764.56;;;20.42;48.35
53900;BME280;40509;32.858;-116.858;2023-05-02T07:44:58;97761.66;;;20.45;48.47
53900;BME280;40509;32.858;-116.858;2023-05-02T07:47:25;97758.63;;;20.40;48.63
53900;BME280;40509;32.858;-116.858;2023-05-02T07:49:53;97762.59;;;20.44;48.44
53900;BME280;40509;32.858;-116.858;2023-05-02T07:52:21;97750.91;;;20.38;48.29
53900;BME280;40509;32.858;-116.858;2023-05-02T07:54:49;97752.56;;;20.39;48.55
53900;BME280;40509;32.858;-116.858;2023-05-02T07:57:16;97759.63;;;20.39;48.22
53900;BME280;40509;32.858;-116.858;2023-05-02T07:59:44;97760.28;;;20.41;48.52
53900;BME280;40509;32.858;-116.858;2023-05-02T08:02:11;97756.00;;;20.40;48.35
53900;BME280;40509;32.858;-116.858;2023-05-02T08:04:39;97752.72;;;20.38;47.99
53900;BME280;40509;32.858;-116.858;2023-05-02T08:07:07;97755.34;;;20.38;48.37
53900;BME280;40509;32.858;-116.858;2023-05-02T08:09:34;97756.78;;;20.32;48.14
53900;BME280;40509;32.858;-116.858;2023-05-02T08:12:01;97749.28;;;20.37;48.38
53900;BME280;40509;32.858;-116.858;2023-05-02T08:14:29;97750.25;;;20.36;48.25
53900;BME280;40509;32.858;-116.858;2023-05-02T08:16:57;97755.94;;;20.32;48.00
53900;BME280;40509;32.858;-116.858;2023-05-02T08:19:24;97749.72;;;20.33;48.54
53900;BME280;40509;32.858;-116.858;2023-05-02T08:21:55;97744.47;;;20.33;48.36
53900;BME280;40509;32.858;-116.858;2023-05-02T08:24:23;97741.84;;;20.33;48.40
53900;BME280;40509;32.858;-116.858;2023-05-02T08:26:51;97744.09;;;20.28;48.56
53900;BME280;40509;32.858;-116.858;2023-05-02T08:29:18;97741.84;;;20.33;48.32
53900;BME280;40509;32.858;-116.858;2023-05-02T08:31:46;97740.19;;;20.32;48.47
53900;BME280;40509;32.858;-116.858;2023-05-02T08:34:13;97739.69;;;20.28;48.19
53900;BME280;40509;32.858;-116.858;2023-05-02T08:36:40;97737.22;;;20.27;48.58
53900;BME280;40509;32.858;-116.858;2023-05-02T08:39:07;97753.47;;;20.30;48.33
53900;BME280;40509;32.858;-116.858;2023-05-02T08:41:34;97748.97;;;20.23;48.54
53900;BME280;40509;32.858;-116.858;2023-05-02T08:44:02;97749.19;;;20.29;48.20
53900;BME280;40509;32.858;-116.858;2023-05-02T08:46:30;97745.59;;;20.30;48.28
53900;BME280;40509;32.858;-116.858;2023-05-02T08:48:58;97744.78;;;20.30;48.29
53900;BME280;40509;32.858;-116.858;2023-05-02T08:51:26;97743.13;;;20.29;48.18
53900;BME280;40509;32.858;-116.858;2023-05-02T08:53:58;97744.41;;;20.25;48.38
53900;BME280;40509;32.858;-116.858;2023-05-02T08:56:28;97740.50;;;20.29;48.21
53900;BME280;40509;32.858;-116.858;2023-05-02T08:58:55;97746.19;;;20.24;48.36
53900;BME280;40509;32.858;-116.858;2023-05-02T09:01:23;97742.06;;;20.21;48.25
53900;BME280;40509;32.858;-116.858;2023-05-02T09:03:54;97741.91;;;20.23;48.26
53900;BME280;40509;32.858;-116.858;2023-05-02T09:06:25;97737.78;;;20.20;48.32
53900;BME280;40509;32.858;-116.858;2023-05-02T09:08:53;97737.78;;;20.20;48.04
53900;BME280;40509;32.858;-116.858;2023-05-02T09:11:20;97738.63;;;20.21;48.21
53900;BME280;40509;32.858;-116.858;2023-05-02T09:13:49;97736.13;;;20.19;48.03
53900;BME280;40509;32.858;-116.858;2023-05-02T09:16:21;97737.13;;;20.18;48.21
53900;BME280;40509;32.858;-116.858;2023-05-02T09:18:54;97732.00;;;20.17;48.27
53900;BME280;40509;32.858;-116.858;2023-05-02T09:21:34;97729.28;;;20.18;48.50
53900;BME280;40509;32.858;-116.858;2023-05-02T09:24:15;97725.38;;;20.23;47.89
53900;BME280;40509;32.858;-116.858;2023-05-02T09:26:59;97723.88;;;20.20;48.33
53900;BME280;40509;32.858;-116.858;2023-05-02T09:29:29;97725.66;;;20.19;48.03
53900;BME280;40509;32.858;-116.858;2023-05-02T09:32:01;97723.19;;;20.18;48.00
53900;BME280;40509;32.858;-116.858;2023-05-02T09:34:29;97733.81;;;20.16;48.21
53900;BME280;40509;32.858;-116.858;2023-05-02T09:36:57;97733.13;;;20.14;48.17
53900;BME280;40509;32.858;-116.858;2023-05-02T09:39:26;97729.41;;;20.17;48.09
53900;BME280;40509;32.858;-116.858;2023-05-02T09:41:57;97734.50;;;20.18;48.22
53900;BME280;40509;32.858;-116.858;2023-05-02T09:44:26;97732.31;;;20.14;47.59
53900;BME280;40509;32.858;-116.858;2023-05-02T09:47:02;97735.25;;;20.11;48.41
53900;BME280;40509;32.858;-116.858;2023-05-02T09:49:42;97733.13;;;20.14;48.00
53900;BME280;40509;32.858;-116.858;2023-05-02T09:52:17;97740.47;;;20.11;48.30
53900;BME280;40509;32.858;-116.858;2023-05-02T09:54:47;97742.41;;;20.09;48.11
53900;BME280;40509;32.858;-116.858;2023-05-02T09:57:18;97733.72;;;20.08;48.27
53900;BME280;40509;32.858;-116.858;2023-05-02T09:59:56;97740.63;;;20.09;47.98
53900;BME280;40509;32.858;-116.858;2023-05-02T10:02:24;97744.22;;;20.08;48.21
53900;BME280;40509;32.858;-116.858;2023-05-02T10:04:56;97738.66;;;20.11;47.97
53900;BME280;40509;32.858;-116.858;2023-05-02T10:07:24;97738.66;;;20.11;48.15
53900;BME280;40509;32.858;-116.858;2023-05-02T10:09:53;97740.78;;;20.08;47.87
53900;BME280;40509;32.858;-116.858;2023-05-02T10:12:25;97742.81;;;20.14;47.82
53900;BME280;40509;32.858;-116.858;2023-05-02T10:14:57;97741.75;;;20.07;48.30
53900;BME280;40509;32.858;-116.858;2023-05-02T10:17:38;97738.81;;;20.10;48.09
53900;BME280;40509;32.858;-116.858;2023-05-02T10:20:10;97738.28;;;20.06;47.80
53900;BME280;40509;32.858;-116.858;2023-05-02T10:22:42;97738.00;;;20.09;47.92
53900;BME280;40509;32.858;-116.858;2023-05-02T10:25:12;97746.16;;;20.06;48.19
53900;BME280;40509;32.858;-116.858;2023-05-02T10:27:40;97741.84;;;20.15;47.54
53900;BME280;40509;32.858;-116.858;2023-05-02T10:30:08;97742.25;;;20.10;48.10
53900;BME280;40509;32.858;-116.858;2023-05-02T10:32:37;97746.16;;;20.06;47.96
53900;BME280;40509;32.858;-116.858;2023-05-02T10:35:05;97738.88;;;20.00;48.05
53900;BME280;40509;32.858;-116.858;2023-05-02T10:37:35;97743.97;;;20.01;48.07
53900;BME280;40509;32.858;-116.858;2023-05-02T10:40:08;97741.34;;;20.01;48.04
53900;BME280;40509;32.858;-116.858;2023-05-02T10:42:45;97738.03;;;19.99;48.27
53900;BME280;40509;32.858;-116.858;2023-05-02T10:45:36;97738.03;;;19.99;48.00
53900;BME280;40509;32.858;-116.858;2023-05-02T10:48:18;97736.41;;;19.98;48.29
53900;BME280;40509;32.858;-116.858;2023-05-02T10:50:48;97734.47;;;20.00;48.08
53900;BME280;40509;32.858;-116.858;2023-05-02T10:53:35;97733.63;;;20.00;48.02
53900;BME280;40509;32.858;-116.858;2023-05-02T10:56:13;97735.28;;;20.01;47.88
53900;BME280;40509;32.858;-116.858;2023-05-02T10:58:46;97743.28;;;19.99;48.11
53900;BME280;40509;32.858;-116.858;2023-05-02T11:03:59;97735.72;;;19.96;47.88
53900;BME280;40509;32.858;-116.858;2023-05-02T11:06:29;97739.31;;;19.95;47.54
53900;BME280;40509;32.858;-116.858;2023-05-02T11:11:54;97736.56;;;19.97;47.73
53900;BME280;40509;32.858;-116.858;2023-05-02T11:19:26;97734.34;;;19.92;48.04
53900;BME280;40509;32.858;-116.858;2023-05-02T11:24:46;97736.16;;;19.92;47.98
53900;BME280;40509;32.858;-116.858;2023-05-02T11:30:09;97738.78;;;19.92;47.98
53900;BME280;40509;32.858;-116.858;2023-05-02T11:35:25;97740.72;;;19.90;48.10
53900;BME280;40509;32.858;-116.858;2023-05-02T11:37:53;97742.91;;;19.94;47.68
53900;BME280;40509;32.858;-116.858;2023-05-02T11:40:22;97737.81;;;19.93;47.86
53900;BME280;40509;32.858;-116.858;2023-05-02T11:42:49;97743.47;;;19.88;48.07
53900;BME280;40509;32.858;-116.858;2023-05-02T11:45:17;97733.31;;;19.85;48.27
53900;BME280;40509;32.858;-116.858;2023-05-02T11:47:44;97738.78;;;19.92;47.96
53900;BME280;40509;32.858;-116.858;2023-05-02T11:50:17;97735.78;;;19.86;48.07
53900;BME280;40509;32.858;-116.858;2023-05-02T11:52:45;97734.81;;;19.87;47.60
53900;BME280;40509;32.858;-116.858;2023-05-02T11:55:13;97732.84;;;19.90;47.80
53900;BME280;40509;32.858;-116.858;2023-05-02T11:57:41;97732.34;;;19.86;47.80
53900;BME280;40509;32.858;-116.858;2023-05-02T12:00:09;97729.03;;;19.84;48.10
53900;BME280;40509;32.858;-116.858;2023-05-02T12:02:44;97730.97;;;19.82;47.97
53900;BME280;40509;32.858;-116.858;2023-05-02T12:05:14;97727.09;;;19.86;47.65
53900;BME280;40509;32.858;-116.858;2023-05-02T12:07:43;97733.16;;;19.86;47.77
53900;BME280;40509;32.858;-116.858;2023-05-02T12:10:12;97718.53;;;19.84;47.57
53900;BME280;40509;32.858;-116.858;2023-05-02T12:12:41;97728.22;;;19.83;47.88
53900;BME280;40509;32.858;-116.858;2023-05-02T12:15:11;97732.34;;;19.86;47.93
53900;BME280;40509;32.858;-116.858;2023-05-02T12:17:45;97741.31;;;19.83;47.86
53900;BME280;40509;32.858;-116.858;2023-05-02T12:20:14;97736.34;;;19.80;47.81
53900;BME280;40509;32.858;-116.858;2023-05-02T12:22:43;97738.84;;;19.82;47.78
53900;BME280;40509;32.858;-116.858;2023-05-02T12:25:11;97743.09;;;19.83;47.60
53900;BME280;40509;32.858;-116.858;2023-05-02T12:27:39;97741.31;;;19.83;47.93
53900;BME280;40509;32.858;-116.858;2023-05-02T12:30:06;97749.44;;;19.80;47.48
53900;BME280;40509;32.858;-116.858;2023-05-02T12:32:35;97742.41;;;19.81;47.81
53900;BME280;40509;32.858;-116.858;2023-05-02T12:35:03;97748.72;;;19.88;47.41
53900;BME280;40509;32.858;-116.858;2023-05-02T12:37:31;97755.63;;;19.79;47.41
53900;BME280;40509;32.858;-116.858;2023-05-02T12:39:59;97760.59;;;19.82;47.36
53900;BME280;40509;32.858;-116.858;2023-05-02T12:42:26;97759.50;;;19.75;47.72
53900;BME280;40509;32.858;-116.858;2023-05-02T12:44:53;97756.59;;;19.78;47.82
53900;BME280;40509;32.858;-116.858;2023-05-02T12:47:22;97762.94;;;19.76;47.56
53900;BME280;40509;32.858;-116.858;2023-05-02T12:49:55;97773.00;;;19.80;47.74
53900;BME280;40509;32.858;-116.858;2023-05-02T12:55:19;97763.09;;;19.74;47.66
53900;BME280;40509;32.858;-116.858;2023-05-02T12:57:47;97763.91;;;19.75;47.54
53900;BME280;40509;32.858;-116.858;2023-05-02T13:00:17;97763.09;;;19.74;47.51
53900;BME280;40509;32.858;-116.858;2023-05-02T13:02:45;97761.97;;;19.77;47.20
53900;BME280;40509;32.858;-116.858;2023-05-02T13:05:18;97761.97;;;19.77;47.40
53900;BME280;40509;32.858;-116.858;2023-05-02T13:07:46;97758.00;;;19.73;47.53
53900;BME280;40509;32.858;-116.858;2023-05-02T13:10:13;97761.13;;;19.76;48.06
53900;BME280;40509;32.858;-116.858;2023-05-02T13:12:44;97756.88;;;19.75;48.13
53900;BME280;40509;32.858;-116.858;2023-05-02T13:15:12;97758.66;;;19.75;48.28
53900;BME280;40509;32.858;-116.858;2023-05-02T13:17:40;97762.78;;;19.77;47.96
53900;BME280;40509;32.858;-116.858;2023-05-02T13:20:07;97752.63;;;19.74;48.16
53900;BME280;40509;32.858;-116.858;2023-05-02T13:22:35;97761.69;;;19.80;47.90